Time;durP1;ratioP1;P1;durP2;ratioP2;P2;SDS_P1;SDS_P2;PMS_P1;PMS_P2;Temp;Humidity;BMP_temperature;BMP_pressure;BME280_temperature;BME280_humidity;BME280_pressure;Samples;Min_cycle;Max_cycle;Signal;HPM_P1;HPM_P2
2021/09/23 00:00:21;;;;;;;29.38;22.23;;;9.50;99.90;;;;;;4989321;28;20428;-84
2021/09/23 00:03:00;;;;;;;28.83;23.33;;;9.50;99.90;;;;;;4971845;28;20408;-80
2021/09/23 00:05:30;;;;;;;32.80;26.70;;;9.40;99.90;;;;;;4989416;28;20411;-84
2021/09/23 00:07:57;;;;;;;28.35;23.95;;;9.40;99.90;;;;;;4993055;28;20396;-85
2021/09/23 00:10:29;;;;;;;30.52;23.63;;;9.40;99.90;;;;;;4993148;28;20400;-84
2021/09/23 00:12:56;;;;;;;36.63;28.30;;;9.40;99.90;;;;;;4991902;28;20389;-84
2021/09/23 00:15:22;;;;;;;37.22;28.90;;;9.40;99.90;;;;;;4992271;28;20385;-83
2021/09/23 00:17:52;;;;;;;34.55;27.13;;;9.40;99.90;;;;;;4991451;28;21145;-84
2021/09/23 00:20:20;;;;;;;37.47;28.98;;;9.50;99.90;;;;;;4992956;28;20467;-80
2021/09/23 00:22:46;;;;;;;29.10;24.13;;;9.50;99.90;;;;;;4975535;28;20793;-83
2021/09/23 00:25:12;;;;;;;32.40;27.45;;;9.50;99.90;;;;;;4993520;28;20945;-83
2021/09/23 00:27:39;;;;;;;53.05;39.97;;;9.40;99.90;;;;;;4974714;28;20436;-85
2021/09/23 00:30:06;;;;;;;36.95;29.15;;;9.40;99.90;;;;;;4974709;28;20467;-79
2021/09/23 00:32:32;;;;;;;33.50;27.25;;;9.40;99.90;;;;;;4991904;28;20402;-83
2021/09/23 00:34:58;;;;;;;33.88;27.52;;;9.50;99.90;;;;;;4992151;28;20376;-87
2021/09/23 00:37:23;;;;;;;39.97;29.73;;;9.40;99.90;;;;;;4991603;28;20421;-83
2021/09/23 00:39:49;;;;;;;32.55;27.50;;;9.40;99.90;;;;;;4992699;28;20380;-85
2021/09/23 00:42:15;;;;;;;43.00;31.33;;;9.40;99.90;;;;;;4992897;28;20381;-79
2021/09/23 00:44:40;;;;;;;36.30;30.70;;;9.40;99.90;;;;;;4992228;28;20400;-84
2021/09/23 00:47:08;;;;;;;38.75;30.80;;;9.40;99.90;;;;;;4991187;28;20381;-83
2021/09/23 00:49:34;;;;;;;34.70;29.92;;;9.40;99.90;;;;;;4992555;28;20392;-84
2021/09/23 00:51:59;;;;;;;46.55;35.03;;;9.40;99.90;;;;;;4991634;28;20751;-82
2021/09/23 00:54:25;;;;;;;42.37;32.87;;;9.40;99.90;;;;;;4992487;28;20892;-81
2021/09/23 00:56:51;;;;;;;45.70;36.67;;;9.40;99.90;;;;;;4991945;28;20420;-84
2021/09/23 00:59:16;;;;;;;41.42;33.85;;;9.40;99.90;;;;;;4977215;28;20435;-81
2021/09/23 01:01:45;;;;;;;51.87;40.13;;;9.40;99.90;;;;;;4976087;28;20911;-81
2021/09/23 01:04:14;;;;;;;49.72;38.13;;;9.30;99.90;;;;;;4991099;28;20444;-86
2021/09/23 01:06:40;;;;;;;44.80;35.17;;;9.30;99.90;;;;;;4991993;28;20392;-80
2021/09/23 01:09:05;;;;;;;60.40;42.37;;;9.40;99.90;;;;;;4991745;28;20385;-81
2021/09/23 01:11:31;;;;;;;51.55;39.38;;;9.40;99.90;;;;;;4991317;28;20380;-83
2021/09/23 01:13:57;;;;;;;45.20;35.67;;;9.40;99.90;;;;;;4991409;28;20400;-83
2021/09/23 01:16:23;;;;;;;55.27;42.47;;;9.50;99.90;;;;;;4991883;28;20472;-78
2021/09/23 01:18:49;;;;;;;48.47;36.67;;;9.50;99.90;;;;;;4991325;28;20878;-78
2021/09/23 01:21:14;;;;;;;47.17;38.87;;;9.50;99.90;;;;;;4991519;28;20401;-84
2021/09/23 01:23:42;;;;;;;62.85;46.75;;;9.50;99.90;;;;;;4991618;28;20405;-83
2021/09/23 01:26:16;;;;;;;53.13;40.60;;;9.60;99.90;;;;;;4991025;28;20408;-82
2021/09/23 01:28:42;;;;;;;60.70;46.63;;;9.60;99.90;;;;;;4991424;28;20385;-81
2021/09/23 01:31:08;;;;;;;58.47;44.42;;;9.60;99.90;;;;;;4991667;28;20915;-81
2021/09/23 01:33:35;;;;;;;53.53;40.75;;;9.60;99.90;;;;;;4991504;28;20400;-86
2021/09/23 01:36:00;;;;;;;45.85;36.70;;;9.60;99.90;;;;;;4991113;28;20377;-84
2021/09/23 01:38:28;;;;;;;53.13;41.50;;;9.70;99.90;;;;;;4990764;28;20728;-84
2021/09/23 01:40:54;;;;;;;52.90;41.22;;;9.70;99.90;;;;;;4991253;28;20405;-81
2021/09/23 01:43:20;;;;;;;52.83;41.38;;;9.70;99.90;;;;;;4991211;28;20377;-86
2021/09/23 01:45:47;;;;;;;75.45;52.20;;;9.70;99.90;;;;;;4991384;28;20389;-82
2021/09/23 01:48:13;;;;;;;54.88;42.35;;;9.70;99.90;;;;;;4991182;28;20381;-82
2021/09/23 01:50:39;;;;;;;60.00;45.60;;;9.70;99.90;;;;;;4990039;28;20392;-85
2021/09/23 01:53:04;;;;;;;56.08;43.60;;;9.70;99.90;;;;;;4991104;28;20424;-85
2021/09/23 01:55:30;;;;;;;56.33;41.30;;;9.70;99.90;;;;;;4991348;28;20447;-83
2021/09/23 01:57:55;;;;;;;78.73;54.27;;;9.70;99.90;;;;;;4990798;28;20871;-83
2021/09/23 02:00:21;;;;;;;60.80;45.95;;;9.70;99.90;;;;;;4990924;28;20767;-83
2021/09/23 02:02:48;;;;;;;62.63;45.40;;;9.60;99.90;;;;;;4990957;28;20401;-78
2021/09/23 02:05:14;;;;;;;66.60;47.00;;;9.60;99.90;;;;;;4989749;28;20385;-84
2021/09/23 02:07:40;;;;;;;54.85;42.55;;;9.50;99.90;;;;;;4990572;28;20479;-79
2021/09/23 02:10:06;;;;;;;64.32;46.28;;;9.50;99.90;;;;;;4990742;28;20387;-81
2021/09/23 02:12:31;;;;;;;61.05;48.10;;;9.50;99.90;;;;;;4990875;28;20440;-85
2021/09/23 02:14:58;;;;;;;75.67;53.67;;;9.50;99.90;;;;;;4990582;28;20385;-83
2021/09/23 02:17:24;;;;;;;62.67;48.17;;;9.50;99.90;;;;;;4990626;28;20436;-84
2021/09/23 02:19:50;;;;;;;71.97;52.13;;;9.50;99.90;;;;;;4990591;28;20792;-82
2021/09/23 02:22:15;;;;;;;81.20;56.25;;;9.50;99.90;;;;;;4991226;28;20396;-81
2021/09/23 02:24:41;;;;;;;70.38;51.42;;;9.50;99.90;;;;;;4990955;28;20377;-81
2021/09/23 02:27:08;;;;;;;67.30;49.13;;;9.50;99.90;;;;;;4990112;28;20392;-83
2021/09/23 02:29:34;;;;;;;74.00;52.72;;;9.50;99.90;;;;;;4989637;28;20385;-79
2021/09/23 02:32:02;;;;;;;73.80;51.33;;;9.50;99.90;;;;;;4990492;28;20589;-84
2021/09/23 02:34:28;;;;;;;79.90;55.20;;;9.50;99.90;;;;;;4990773;28;20456;-81
2021/09/23 02:36:54;;;;;;;82.35;57.63;;;9.40;99.90;;;;;;4990631;28;20881;-81
2021/09/23 02:39:19;;;;;;;72.93;52.87;;;9.40;99.90;;;;;;4990549;28;20792;-85
2021/09/23 02:41:45;;;;;;;71.80;52.40;;;9.40;99.90;;;;;;4989911;28;20435;-82
2021/09/23 02:44:10;;;;;;;71.33;51.13;;;9.40;99.90;;;;;;4990015;28;20381;-80
2021/09/23 02:46:36;;;;;;;69.37;50.27;;;9.40;99.90;;;;;;4989872;28;20528;-86
2021/09/23 02:49:01;;;;;;;81.10;58.03;;;9.40;99.90;;;;;;4989930;28;20887;-83
2021/09/23 02:51:27;;;;;;;88.00;60.17;;;9.40;99.90;;;;;;4989809;28;20384;-85
2021/09/23 02:53:53;;;;;;;87.53;62.27;;;9.40;99.90;;;;;;4989589;28;20903;-82
2021/09/23 02:56:19;;;;;;;95.75;65.35;;;9.40;99.90;;;;;;4989710;28;20392;-85
2021/09/23 02:58:47;;;;;;;82.28;57.53;;;9.50;99.90;;;;;;4989899;28;20388;-82
2021/09/23 03:01:13;;;;;;;92.18;60.90;;;9.40;99.90;;;;;;4989756;28;20409;-81
2021/09/23 03:03:39;;;;;;;85.27;57.23;;;9.50;99.90;;;;;;4989987;28;20482;-82
2021/09/23 03:06:04;;;;;;;90.03;61.60;;;9.40;99.90;;;;;;4991685;28;20392;-80
2021/09/23 03:08:30;;;;;;;79.40;56.70;;;9.50;99.90;;;;;;4990962;28;20379;-84
2021/09/23 03:10:55;;;;;;;85.07;57.50;;;9.50;99.90;;;;;;4988894;28;20906;-81
2021/09/23 03:13:21;;;;;;;89.22;59.90;;;9.50;99.90;;;;;;4989023;28;20770;-85
2021/09/23 03:15:47;;;;;;;92.53;62.37;;;9.50;99.90;;;;;;4989806;28;20801;-86
2021/09/23 03:18:13;;;;;;;85.20;57.67;;;9.50;99.90;;;;;;4988007;28;20401;-80
2021/09/23 03:20:40;;;;;;;79.20;55.87;;;9.50;99.90;;;;;;4988288;28;20511;-83
2021/09/23 03:23:06;;;;;;;81.90;55.88;;;9.50;99.90;;;;;;4984921;28;20398;-81
2021/09/23 03:25:34;;;;;;;78.32;53.92;;;9.50;99.90;;;;;;4982178;28;20713;-85
2021/09/23 03:27:59;;;;;;;83.13;56.13;;;9.50;99.90;;;;;;4989342;28;20389;-85
2021/09/23 03:30:25;;;;;;;75.43;53.43;;;9.40;99.90;;;;;;4989453;28;20380;-81
2021/09/23 03:32:51;;;;;;;89.43;59.97;;;9.40;99.90;;;;;;4989124;28;20392;-83
2021/09/23 03:35:18;;;;;;;100.78;61.97;;;9.30;99.90;;;;;;4989543;28;20369;-78
2021/09/23 03:37:44;;;;;;;88.60;56.78;;;9.30;99.90;;;;;;4972087;28;20397;-84
2021/09/23 03:40:10;;;;;;;79.22;54.17;;;9.30;99.90;;;;;;4987602;28;20930;-84
2021/09/23 03:42:36;;;;;;;71.60;52.47;;;9.30;99.90;;;;;;4993266;28;20576;-85
2021/09/23 03:45:04;;;;;;;81.25;55.08;;;9.40;99.90;;;;;;4993510;28;20423;-81
2021/09/23 03:47:30;;;;;;;74.35;52.72;;;9.40;99.90;;;;;;4992993;28;20389;-82
2021/09/23 03:49:55;;;;;;;81.60;56.83;;;9.40;99.90;;;;;;4993165;28;20893;-81
2021/09/23 03:52:21;;;;;;;76.57;53.40;;;9.30;99.90;;;;;;4993183;28;20385;-83
2021/09/23 03:54:47;;;;;;;70.35;50.58;;;9.30;99.90;;;;;;4993228;28;20391;-81
2021/09/23 03:57:12;;;;;;;80.53;55.38;;;9.30;99.90;;;;;;4993197;28;20388;-82
2021/09/23 03:59:38;;;;;;;76.27;53.07;;;9.20;99.90;;;;;;4993475;28;20385;-82
2021/09/23 04:02:04;;;;;;;85.20;56.20;;;9.20;99.90;;;;;;4993124;28;20415;-83
2021/09/23 04:04:29;;;;;;;104.43;66.63;;;9.20;99.90;;;;;;4993262;28;20377;-84
2021/09/23 04:06:55;;;;;;;119.53;62.30;;;9.20;99.90;;;;;;4992352;28;20396;-83
2021/09/23 04:09:20;;;;;;;89.47;56.67;;;9.20;99.90;;;;;;4991582;28;20479;-84
2021/09/23 04:11:46;;;;;;;79.70;52.67;;;9.10;99.90;;;;;;4991624;28;20786;-85
2021/09/23 04:14:11;;;;;;;85.20;57.93;;;9.10;99.90;;;;;;4992582;28;20385;-82
2021/09/23 04:16:37;;;;;;;81.40;54.67;;;9.10;99.90;;;;;;4992183;28;20452;-82
2021/09/23 04:19:03;;;;;;;79.32;57.08;;;9.00;99.90;;;;;;4992183;28;20388;-83
2021/09/23 04:21:29;;;;;;;79.78;56.90;;;9.00;99.90;;;;;;4992456;28;20405;-81
2021/09/23 04:23:56;;;;;;;87.10;53.92;;;8.90;99.90;;;;;;4992241;28;20380;-81
2021/09/23 04:26:22;;;;;;;73.88;53.33;;;8.90;99.90;;;;;;4993442;28;20483;-79
2021/09/23 04:28:47;;;;;;;79.70;55.17;;;8.90;99.90;;;;;;4991781;28;20965;-80
2021/09/23 04:31:13;;;;;;;93.57;61.30;;;8.90;99.90;;;;;;4975153;28;20404;-84
2021/09/23 04:33:38;;;;;;;79.35;55.15;;;8.80;99.90;;;;;;4992278;28;20399;-83
2021/09/23 04:36:04;;;;;;;85.22;57.38;;;8.80;99.90;;;;;;4991807;28;20391;-79
2021/09/23 04:38:30;;;;;;;72.63;52.63;;;8.80;99.90;;;;;;4992655;28;20409;-86
2021/09/23 04:40:55;;;;;;;80.43;54.00;;;8.80;99.90;;;;;;4992783;28;20765;-86
2021/09/23 04:43:21;;;;;;;82.65;54.60;;;8.80;99.90;;;;;;4992954;28;20381;-83
2021/09/23 04:45:47;;;;;;;88.85;56.50;;;8.70;99.90;;;;;;4991701;28;20396;-82
2021/09/23 04:48:13;;;;;;;80.82;55.63;;;8.70;99.90;;;;;;4990620;28;20401;-82
2021/09/23 04:50:39;;;;;;;78.18;54.92;;;8.70;99.90;;;;;;4991192;28;20397;-81
2021/09/23 04:53:05;;;;;;;84.05;56.80;;;8.60;99.90;;;;;;4991010;28;20734;-81
2021/09/23 04:55:31;;;;;;;125.85;75.82;;;8.60;99.90;;;;;;4993368;28;20454;-85
2021/09/23 04:57:59;;;;;;;114.53;72.20;;;8.70;99.90;;;;;;4991711;28;20385;-82
2021/09/23 05:00:24;;;;;;;86.05;59.90;;;8.70;99.90;;;;;;4995351;28;20409;-83
2021/09/23 05:02:50;;;;;;;82.20;58.50;;;8.80;99.90;;;;;;4990496;28;20428;-82
2021/09/23 05:05:16;;;;;;;86.53;59.87;;;8.70;99.90;;;;;;4991444;28;20759;-80
2021/09/23 05:07:41;;;;;;;125.57;76.67;;;8.70;99.90;;;;;;4995178;28;20902;-86
2021/09/23 05:10:07;;;;;;;124.97;74.70;;;8.70;99.90;;;;;;4993394;28;21020;-84
2021/09/23 05:12:33;;;;;;;101.95;67.30;;;8.70;99.90;;;;;;4991751;28;20400;-83
2021/09/23 05:14:58;;;;;;;94.67;63.83;;;8.80;99.90;;;;;;4991438;28;20772;-83
2021/09/23 05:17:24;;;;;;;125.80;78.40;;;8.80;99.90;;;;;;4991434;28;20743;-82
2021/09/23 05:19:50;;;;;;;135.25;82.70;;;8.80;99.90;;;;;;4991305;28;20377;-83
2021/09/23 05:22:16;;;;;;;169.47;97.20;;;8.90;99.90;;;;;;4990640;28;20409;-84
2021/09/23 05:24:47;;;;;;;138.30;83.63;;;9.10;99.90;;;;;;4991221;28;20373;-83
2021/09/23 05:27:12;;;;;;;135.10;83.85;;;9.20;99.90;;;;;;4973449;28;20393;-82
2021/09/23 05:29:41;;;;;;;120.80;74.13;;;9.30;99.90;;;;;;4990954;28;20403;-82
2021/09/23 05:32:07;;;;;;;122.38;77.18;;;9.40;99.90;;;;;;4973568;28;20396;-83
2021/09/23 05:34:33;;;;;;;138.02;82.85;;;9.50;99.90;;;;;;4990202;28;20408;-81
2021/09/23 05:36:59;;;;;;;136.63;85.10;;;9.60;99.90;;;;;;4973768;28;21227;-84
2021/09/23 05:39:24;;;;;;;134.77;83.50;;;9.70;99.90;;;;;;4991220;28;20955;-84
2021/09/23 05:41:50;;;;;;;109.05;70.78;;;9.80;99.90;;;;;;4991500;28;20396;-84
2021/09/23 05:44:23;;;;;;;116.87;73.00;;;9.90;99.90;;;;;;4990969;28;20365;-84
2021/09/23 05:46:52;;;;;;;115.00;72.50;;;10.00;99.90;;;;;;4991055;28;20393;-82
2021/09/23 05:49:19;;;;;;;128.80;78.72;;;10.10;99.90;;;;;;4991245;28;20385;-85
2021/09/23 05:51:45;;;;;;;119.72;75.80;;;10.20;99.90;;;;;;4989889;28;20439;-84
2021/09/23 05:54:11;;;;;;;121.93;79.22;;;10.30;99.90;;;;;;4991011;28;20416;-85
2021/09/23 05:56:38;;;;;;;128.25;80.50;;;10.50;99.90;;;;;;4990796;28;20508;-82
2021/09/23 05:59:04;;;;;;;141.55;84.95;;;10.60;99.90;;;;;;4990752;28;21171;-85
2021/09/23 06:01:29;;;;;;;157.97;83.73;;;10.70;99.90;;;;;;4990540;28;20483;-83
2021/09/23 06:03:55;;;;;;;120.32;75.28;;;10.80;99.90;;;;;;4990327;28;20388;-86
2021/09/23 06:06:21;;;;;;;111.57;73.40;;;10.90;99.90;;;;;;4990622;28;20404;-84
2021/09/23 06:08:46;;;;;;;129.53;75.67;;;11.00;99.90;;;;;;4990860;28;20392;-82
2021/09/23 06:11:12;;;;;;;134.73;82.55;;;11.10;99.90;;;;;;4990481;28;20743;-82
2021/09/23 06:13:38;;;;;;;136.80;89.03;;;11.10;99.90;;;;;;4990663;28;20385;-78
2021/09/23 06:16:04;;;;;;;152.00;94.28;;;11.20;99.90;;;;;;4990666;28;20395;-82
2021/09/23 06:18:30;;;;;;;141.65;90.15;;;11.30;99.90;;;;;;4990455;28;20389;-84
2021/09/23 06:20:55;;;;;;;136.27;87.07;;;11.50;99.90;;;;;;4988840;28;20807;-82
2021/09/23 06:23:21;;;;;;;132.32;89.85;;;11.70;99.90;;;;;;4990285;28;20926;-85
2021/09/23 06:25:47;;;;;;;130.63;89.43;;;11.90;99.90;;;;;;4989035;28;20385;-83
2021/09/23 06:28:13;;;;;;;126.73;87.87;;;12.10;99.90;;;;;;4990139;28;20391;-82
2021/09/23 06:30:38;;;;;;;109.07;79.43;;;12.20;99.90;;;;;;4990401;28;20389;-77
2021/09/23 06:33:04;;;;;;;102.93;74.22;;;12.40;99.90;;;;;;4988068;28;20408;-84
2021/09/23 06:35:30;;;;;;;97.35;72.78;;;12.60;99.90;;;;;;4990145;28;20717;-81
2021/09/23 06:37:56;;;;;;;83.65;64.47;;;12.80;99.90;;;;;;4988881;28;20413;-82
2021/09/23 06:40:22;;;;;;;82.13;62.50;;;13.00;99.90;;;;;;4989354;28;20406;-79
2021/09/23 06:42:48;;;;;;;78.77;61.47;;;13.10;99.90;;;;;;4987929;28;20546;-83
2021/09/23 06:45:21;;;;;;;71.60;59.10;;;13.10;99.90;;;;;;4987081;28;20798;-81
2021/09/23 06:47:46;;;;;;;77.60;58.47;;;13.20;99.90;;;;;;4985495;28;20412;-83
2021/09/23 06:50:14;;;;;;;74.75;57.30;;;13.40;99.90;;;;;;4987423;28;20442;-83
2021/09/23 06:52:40;;;;;;;66.93;55.33;;;13.50;99.90;;;;;;4982550;28;20519;-82
2021/09/23 06:55:08;;;;;;;68.43;55.38;;;13.60;99.90;;;;;;4987262;28;20395;-78
2021/09/23 06:57:34;;;;;;;70.47;54.90;;;13.80;99.90;;;;;;4997064;28;20475;-79
2021/09/23 06:59:59;;;;;;;69.00;54.80;;;13.80;99.90;;;;;;4981370;28;20400;-80
2021/09/23 07:02:25;;;;;;;71.70;55.15;;;13.70;99.90;;;;;;4984893;28;20910;-79
2021/09/23 07:04:52;;;;;;;69.30;55.13;;;13.50;99.90;;;;;;4992439;28;20389;-81
2021/09/23 07:07:17;;;;;;;63.08;52.55;;;13.70;99.90;;;;;;4984443;28;20755;-80
2021/09/23 07:09:44;;;;;;;64.70;51.10;;;13.90;99.90;;;;;;4985729;28;20396;-84
2021/09/23 07:12:10;;;;;;;61.67;49.93;;;14.10;99.90;;;;;;4967872;28;21029;-82
2021/09/23 07:14:36;;;;;;;64.90;49.97;;;14.30;99.90;;;;;;4985729;28;20911;-81
2021/09/23 07:17:02;;;;;;;63.03;50.83;;;14.50;99.90;;;;;;4984658;28;20373;-86
2021/09/23 07:19:27;;;;;;;62.10;48.25;;;14.60;99.90;;;;;;4985978;28;20874;-80
2021/09/23 07:21:56;;;;;;;57.83;46.53;;;14.80;99.90;;;;;;4985740;28;20397;-85
2021/09/23 07:24:23;;;;;;;56.13;45.28;;;15.00;99.90;;;;;;4986159;28;20404;-80
2021/09/23 07:26:52;;;;;;;58.38;45.53;;;15.20;99.90;;;;;;4985700;28;20404;-82
2021/09/23 07:29:18;;;;;;;55.33;44.20;;;15.30;99.90;;;;;;4992112;28;20828;-87
2021/09/23 07:31:44;;;;;;;58.53;46.60;;;15.40;99.90;;;;;;4985596;28;20391;-77
2021/09/23 07:34:11;;;;;;;55.60;44.67;;;15.50;99.90;;;;;;4984200;28;20471;-80
2021/09/23 07:36:37;;;;;;;53.05;43.65;;;15.60;99.90;;;;;;4985345;28;20994;-79
2021/09/23 07:39:06;;;;;;;53.37;42.37;;;15.80;99.90;;;;;;4979119;28;20388;-78
2021/09/23 07:41:34;;;;;;;54.33;42.08;;;16.10;99.90;;;;;;4983164;28;20486;-81
2021/09/23 07:44:00;;;;;;;51.83;41.58;;;16.10;99.90;;;;;;4983759;28;20483;-83
2021/09/23 07:46:26;;;;;;;53.95;40.72;;;16.40;99.90;;;;;;4965839;28;20395;-79
2021/09/23 07:48:53;;;;;;;49.80;40.77;;;16.60;99.90;;;;;;4983744;28;20385;-80
2021/09/23 07:51:20;;;;;;;51.93;41.50;;;16.80;99.90;;;;;;4987435;28;20948;-81
2021/09/23 07:53:46;;;;;;;48.23;39.37;;;17.10;99.90;;;;;;4981760;28;20396;-82
2021/09/23 07:56:14;;;;;;;46.13;39.97;;;17.30;99.90;;;;;;4984334;28;20400;-83
2021/09/23 07:58:46;;;;;;;52.92;41.38;;;17.40;99.90;;;;;;4965947;28;20971;-83
2021/09/23 08:01:12;;;;;;;49.80;39.80;;;17.50;99.90;;;;;;4966767;28;20513;-78
2021/09/23 08:03:38;;;;;;;48.42;38.47;;;17.70;99.90;;;;;;4976911;28;20982;-80
2021/09/23 08:06:04;;;;;;;48.40;38.42;;;17.80;99.90;;;;;;4967998;28;20412;-80
2021/09/23 08:08:30;;;;;;;47.77;37.93;;;17.80;99.90;;;;;;4982472;28;20883;-82
2021/09/23 08:10:56;;;;;;;48.17;38.38;;;17.80;99.90;;;;;;4980293;28;20385;-80
2021/09/23 08:13:22;;;;;;;47.07;37.07;;;17.70;99.90;;;;;;4966524;28;20459;-81
2021/09/23 08:15:48;;;;;;;48.20;35.78;;;17.70;99.90;;;;;;4985074;28;20403;-81
2021/09/23 08:18:15;;;;;;;46.65;35.90;;;17.80;99.90;;;;;;4984892;28;20879;-83
2021/09/23 08:20:41;;;;;;;45.55;35.97;;;17.70;99.90;;;;;;4988408;28;20474;-77
2021/09/23 08:23:08;;;;;;;41.70;33.45;;;17.80;99.90;;;;;;4979228;28;20389;-81
2021/09/23 08:25:35;;;;;;;41.83;34.35;;;17.70;99.90;;;;;;4966822;28;20396;-82
2021/09/23 08:28:02;;;;;;;42.78;32.45;;;17.80;99.90;;;;;;4986950;28;20417;-79
2021/09/23 08:30:28;;;;;;;41.30;32.13;;;17.80;99.90;;;;;;4987835;28;20466;-80
2021/09/23 08:32:54;;;;;;;42.78;32.08;;;17.70;99.90;;;;;;4971109;28;20970;-83
2021/09/23 08:35:22;;;;;;;41.83;31.43;;;17.70;99.90;;;;;;4987897;28;20579;-79
2021/09/23 08:37:49;;;;;;;40.10;31.43;;;17.60;99.90;;;;;;4988891;28;20389;-79
2021/09/23 08:40:16;;;;;;;38.30;29.38;;;17.60;99.90;;;;;;4987647;28;20407;-83
2021/09/23 08:42:44;;;;;;;37.90;29.83;;;17.60;99.90;;;;;;4988353;28;20401;-84
2021/09/23 08:45:12;;;;;;;40.45;30.23;;;17.70;99.90;;;;;;4971941;28;20728;-83
2021/09/23 08:47:41;;;;;;;38.72;29.30;;;17.80;99.90;;;;;;4989527;28;20377;-82
2021/09/23 08:50:11;;;;;;;39.95;28.35;;;17.90;99.90;;;;;;4989029;28;20392;-81
2021/09/23 08:52:36;;;;;;;33.75;27.92;;;18.00;99.90;;;;;;4973504;28;20400;-77
2021/09/23 08:55:03;;;;;;;38.53;29.17;;;18.20;99.90;;;;;;4991374;28;20528;-82
2021/09/23 08:57:33;;;;;;;39.85;29.85;;;18.40;99.90;;;;;;4989317;28;20435;-81
2021/09/23 09:00:08;;;;;;;33.28;26.33;;;18.50;99.90;;;;;;4988384;28;20421;-81
2021/09/23 09:02:34;;;;;;;33.83;27.05;;;18.70;99.90;;;;;;4988893;28;20424;-82
2021/09/23 09:05:00;;;;;;;39.97;28.08;;;18.90;99.90;;;;;;4989070;28;21600;-83
2021/09/23 09:07:30;;;;;;;34.70;26.53;;;18.90;99.90;;;;;;4988762;28;20393;-79
2021/09/23 09:10:06;;;;;;;34.97;26.17;;;18.80;99.90;;;;;;4989016;28;20451;-81
2021/09/23 09:12:32;;;;;;;34.45;25.45;;;18.90;99.90;;;;;;4991458;28;20445;-80
2021/09/23 09:14:59;;;;;;;32.22;25.88;;;19.10;99.90;;;;;;4989996;28;20522;-78
2021/09/23 09:17:25;;;;;;;32.35;25.63;;;19.00;99.90;;;;;;4990191;28;20425;-79
2021/09/23 09:20:02;;;;;;;37.50;24.90;;;19.10;99.90;;;;;;4988306;28;20384;-80
2021/09/23 09:22:31;;;;;;;32.35;25.30;;;19.40;99.90;;;;;;4988103;28;20895;-81
2021/09/23 09:25:05;;;;;;;31.92;25.20;;;19.60;99.90;;;;;;4990751;28;20787;-78
2021/09/23 09:27:37;;;;;;;33.42;25.05;;;19.50;99.90;;;;;;4990077;28;20799;-81
2021/09/23 09:30:08;;;;;;;31.33;25.02;;;19.70;99.90;;;;;;4990897;28;20464;-83
2021/09/23 09:32:50;;;;;;;34.10;24.47;;;20.00;99.90;;;;;;4990386;28;20423;-84
2021/09/23 09:35:20;;;;;;;30.52;23.70;;;20.20;99.90;;;;;;4988985;28;20385;-83
2021/09/23 09:37:49;;;;;;;30.48;23.25;;;20.00;99.90;;;;;;4986776;28;20758;-84
2021/09/23 09:40:19;;;;;;;32.58;23.83;;;20.00;99.90;;;;;;4982007;28;20390;-80
2021/09/23 09:42:47;;;;;;;30.35;23.77;;;19.90;99.90;;;;;;4981315;28;20369;-84
2021/09/23 09:45:19;;;;;;;33.10;24.35;;;19.80;99.90;;;;;;4980303;28;20384;-80
2021/09/23 09:47:52;;;;;;;30.80;23.60;;;19.70;99.90;;;;;;4981549;28;20374;-81
2021/09/23 09:50:19;;;;;;;33.03;23.08;;;19.70;99.90;;;;;;4964456;28;20396;-82
2021/09/23 09:53:01;;;;;;;29.63;22.85;;;19.60;99.90;;;;;;4985309;28;20401;-80
2021/09/23 09:55:39;;;;;;;28.83;22.30;;;19.40;99.90;;;;;;4964339;28;20588;-79
2021/09/23 09:58:05;;;;;;;27.05;22.10;;;19.50;99.90;;;;;;4986416;28;20392;-81
2021/09/23 10:00:32;;;;;;;26.10;20.50;;;19.70;99.90;;;;;;4982838;28;20467;-80
2021/09/23 10:02:58;;;;;;;28.75;22.58;;;20.00;99.90;;;;;;4979868;28;20811;-81
2021/09/23 10:05:24;;;;;;;30.83;23.07;;;20.30;99.90;;;;;;4982622;28;20397;-84
2021/09/23 10:07:53;;;;;;;29.10;22.17;;;20.20;99.90;;;;;;4962659;28;20389;-83
2021/09/23 10:10:22;;;;;;;27.27;21.88;;;20.10;99.90;;;;;;4982652;28;20401;-82
2021/09/23 10:12:50;;;;;;;28.48;22.58;;;20.20;99.90;;;;;;4980600;28;20381;-79
2021/09/23 10:15:18;;;;;;;29.40;22.92;;;20.10;99.90;;;;;;4981955;28;20405;-84
2021/09/23 10:17:47;;;;;;;29.83;23.00;;;20.00;99.90;;;;;;4978598;28;20467;-84
2021/09/23 10:20:16;;;;;;;30.42;22.30;;;19.80;99.90;;;;;;4981437;28;20413;-83
2021/09/23 10:22:42;;;;;;;25.30;21.63;;;19.70;99.90;;;;;;4982162;28;20412;-80
2021/09/23 10:25:15;;;;;;;27.20;21.92;;;19.60;99.90;;;;;;4984081;28;20404;-83
2021/09/23 10:30:23;;;;;;;26.47;20.27;;;19.60;99.90;;;;;;4983467;28;20513;-80
2021/09/23 10:32:50;;;;;;;27.58;20.90;;;19.50;99.90;;;;;;4982541;28;20392;-81
2021/09/23 10:35:23;;;;;;;25.63;20.42;;;19.40;99.90;;;;;;4969309;28;21107;-81
2021/09/23 10:37:54;;;;;;;24.90;20.35;;;19.60;99.90;;;;;;4981024;28;20400;-83
2021/09/23 10:40:21;;;;;;;25.08;19.88;;;19.50;99.90;;;;;;4983770;28;20428;-84
2021/09/23 10:42:50;;;;;;;25.83;20.00;;;19.40;99.90;;;;;;4983130;28;20886;-83
2021/09/23 10:45:17;;;;;;;25.43;18.93;;;19.30;99.90;;;;;;4982696;28;20721;-81
2021/09/23 10:47:47;;;;;;;25.13;18.67;;;19.20;99.90;;;;;;4984227;28;20883;-84
2021/09/23 10:50:13;;;;;;;23.30;18.25;;;19.40;99.90;;;;;;4982716;28;20397;-81
2021/09/23 10:52:40;;;;;;;26.05;18.30;;;19.40;99.90;;;;;;4967787;28;20425;-81
2021/09/23 10:55:09;;;;;;;23.92;18.75;;;19.40;99.90;;;;;;4981759;28;20439;-79
2021/09/23 10:57:35;;;;;;;25.13;17.70;;;19.80;99.90;;;;;;4973967;28;20386;-82
2021/09/23 11:00:05;;;;;;;22.75;16.60;;;20.00;99.90;;;;;;4993026;28;20396;-80
2021/09/23 11:02:32;;;;;;;21.95;16.98;;;20.30;99.90;;;;;;4970778;28;20821;-82
2021/09/23 11:05:00;;;;;;;20.92;16.40;;;20.30;99.90;;;;;;4959708;28;20401;-80
2021/09/23 11:07:31;;;;;;;22.40;15.57;;;20.30;99.90;;;;;;4987566;28;20459;-82
2021/09/23 11:10:32;;;;;;;20.13;15.40;;;20.20;99.90;;;;;;4952639;28;20519;-82
2021/09/23 11:12:59;;;;;;;21.55;15.68;;;20.20;99.90;;;;;;4957696;28;20455;-83
2021/09/23 11:15:29;;;;;;;22.08;14.77;;;20.40;99.90;;;;;;4993539;28;20753;-83
2021/09/23 11:17:56;;;;;;;23.40;15.07;;;20.40;99.90;;;;;;4983215;28;20380;-81
2021/09/23 11:20:29;;;;;;;20.33;15.07;;;20.50;99.90;;;;;;4985488;28;20400;-79
2021/09/23 11:22:54;;;;;;;21.55;14.98;;;20.60;99.90;;;;;;4996326;28;20388;-84
2021/09/23 11:25:25;;;;;;;18.83;14.30;;;20.70;99.90;;;;;;4988910;28;20389;-83
2021/09/23 11:27:52;;;;;;;16.63;12.68;;;20.80;99.90;;;;;;4987967;28;20930;-82
2021/09/23 11:30:20;;;;;;;20.52;14.10;;;20.90;99.90;;;;;;4982356;28;20390;-83
2021/09/23 11:32:49;;;;;;;16.90;11.93;;;21.00;99.90;;;;;;4983622;28;20879;-79
2021/09/23 11:35:15;;;;;;;16.85;11.90;;;20.80;99.90;;;;;;4986824;28;20421;-83
2021/09/23 11:37:41;;;;;;;18.05;12.90;;;20.90;99.90;;;;;;4994448;28;20453;-89
2021/09/23 11:40:08;;;;;;;16.52;11.68;;;20.80;99.90;;;;;;4999336;28;20805;-84
2021/09/23 11:42:36;;;;;;;13.95;10.65;;;20.60;99.90;;;;;;5002210;28;20387;-84
2021/09/23 11:45:12;;;;;;;13.67;10.07;;;20.70;99.90;;;;;;4992031;28;20922;-86
2021/09/23 11:48:00;;;;;;;13.60;9.73;;;20.60;99.90;;;;;;4982677;28;20408;-85
2021/09/23 11:50:44;;;;;;;12.43;9.40;;;20.70;99.90;;;;;;4988877;28;20377;-87
2021/09/23 11:53:26;;;;;;;11.10;8.15;;;20.70;99.90;;;;;;5003404;28;20450;-83
2021/09/23 11:55:59;;;;;;;12.48;7.70;;;20.80;99.90;;;;;;4996430;28;20388;-82
2021/09/23 11:58:26;;;;;;;8.82;6.10;;;20.80;99.90;;;;;;4994990;28;20395;-86
2021/09/23 12:00:52;;;;;;;7.30;5.50;;;20.80;99.90;;;;;;4987723;28;20602;-81
2021/09/23 12:03:19;;;;;;;7.72;5.40;;;20.80;99.90;;;;;;4973124;28;20896;-83
2021/09/23 12:05:47;;;;;;;10.10;5.18;;;20.80;99.90;;;;;;4972929;28;20363;-83
2021/09/23 12:08:16;;;;;;;7.78;4.22;;;20.80;99.90;;;;;;4995559;28;21400;-79
2021/09/23 12:11:00;;;;;;;11.68;5.43;;;20.60;99.90;;;;;;4989586;28;20389;-82
2021/09/23 12:13:32;;;;;;;15.85;5.85;;;20.60;99.90;;;;;;4982798;28;20470;-78
2021/09/23 12:16:00;;;;;;;9.45;4.50;;;20.50;99.90;;;;;;4963732;28;20380;-82
2021/09/23 12:18:28;;;;;;;8.88;3.55;;;20.40;99.90;;;;;;4981372;28;20410;-81
2021/09/23 12:20:57;;;;;;;6.47;3.42;;;20.30;99.90;;;;;;4981970;28;20461;-84
2021/09/23 12:23:32;;;;;;;9.27;3.88;;;20.30;99.90;;;;;;4974347;28;20417;-84
2021/09/23 12:26:05;;;;;;;9.30;3.95;;;20.20;99.90;;;;;;4987379;28;20395;-81
2021/09/23 12:28:31;;;;;;;10.35;3.42;;;20.20;99.90;;;;;;4988918;28;20409;-81
2021/09/23 12:31:06;;;;;;;11.82;3.90;;;20.20;99.90;;;;;;4968640;28;20460;-82
2021/09/23 12:33:32;;;;;;;8.00;3.45;;;20.20;99.90;;;;;;4985737;28;20389;-83